Time,TemperatureF,DewpointF,PressureIn,WindDirection,WindDirectionDegrees,WindSpeedMPH,WindSpeedGustMPH,Humidity,HourlyPrecipIn,Conditions,Clouds,dailyrainin,SoftwareType,DateUTC
2013-03-24 00:00:00,29.8,22.9,29.92,ESE,121,1.0,2.0,75,0.00,,---,0.00,VWS V14.01,2013-03-24 04:00:00,
2013-03-24 00:05:00,29.9,22.3,29.93,SE,127,3.0,3.0,73,0.00,,---,0.00,VWS V14.01,2013-03-24 04:05:00,
2013-03-24 00:10:00,30.4,21.8,29.95,SE,127,3.0,4.0,70,0.00,,---,0.00,VWS V14.01,2013-03-24 04:10:00,
2013-03-24 00:15:00,31.3,21.3,29.95,East,101,3.0,4.0,66,0.00,,---,0.00,VWS V14.01,2013-03-24 04:15:00,
2013-03-24 00:21:00,32.6,20.7,29.95,East,93,3.0,7.0,61,0.00,,---,0.00,VWS V14.01,2013-03-24 04:21:00,
2013-03-24 00:26:00,33.5,20.7,29.94,East,87,1.0,7.0,59,0.00,,---,0.00,VWS V14.01,2013-03-24 04:26:00,
2013-03-24 00:31:00,33.5,20.7,29.93,East,87,0.0,1.0,59,0.00,,---,0.00,VWS V14.01,2013-03-24 04:31:00,
2013-03-24 00:36:00,33.5,20.3,29.93,SE,129,1.0,3.0,58,0.00,,---,0.00,VWS V14.01,2013-03-24 04:36:00,
2013-03-24 00:41:00,34.0,20.4,29.93,East,79,0.0,5.0,57,0.00,,---,0.00,VWS V14.01,2013-03-24 04:41:00,
2013-03-24 00:46:00,34.1,20.1,29.92,SE,127,1.0,5.0,56,0.00,,---,0.00,VWS V14.01,2013-03-24 04:46:00,
2013-03-24 00:51:00,34.2,20.1,29.91,ENE,78,1.0,6.0,56,0.00,,---,0.00,VWS V14.01,2013-03-24 04:51:00,
2013-03-24 00:56:00,34.0,20.4,29.90,ENE,72,0.0,6.0,57,0.00,,---,0.00,VWS V14.01,2013-03-24 04:56:00,
2013-03-24 01:01:00,33.7,20.1,29.89,East,87,0.0,1.0,57,0.00,,---,0.00,VWS V14.01,2013-03-24 05:01:00,
2013-03-24 01:06:00,33.5,20.7,29.89,SE,134,0.0,4.0,59,0.00,,---,0.00,VWS V14.01,2013-03-24 05:06:00,
2013-03-24 01:11:00,33.7,20.5,29.89,ESE,119,10.0,10.0,58,0.00,,---,0.00,VWS V14.01,2013-03-24 05:11:00,
2013-03-24 01:17:00,34.2,20.1,29.89,ESE,122,5.0,12.0,56,0.00,,---,0.00,VWS V14.01,2013-03-24 05:17:00,
2013-03-24 01:22:00,34.3,20.2,29.89,SE,131,5.0,12.0,56,0.00,,---,0.00,VWS V14.01,2013-03-24 05:22:00,
2013-03-24 01:27:00,34.2,20.6,29.89,ESE,103,1.0,12.0,57,0.00,,---,0.00,VWS V14.01,2013-03-24 05:27:00,
2013-03-24 01:32:00,34.1,20.5,29.89,ESE,120,2.0,5.0,57,0.00,,---,0.00,VWS V14.01,2013-03-24 05:32:00,
2013-03-24 01:37:00,34.3,20.2,29.89,SE,127,2.0,8.0,56,0.00,,---,0.00,VWS V14.01,2013-03-24 05:37:00,
2013-03-24 01:42:00,34.4,20.3,29.89,ESE,109,1.0,8.0,56,0.00,,---,0.00,VWS V14.01,2013-03-24 05:42:00,
2013-03-24 01:47:00,34.2,20.6,29.89,SE,132,2.0,8.0,57,0.00,,---,0.00,VWS V14.01,2013-03-24 05:47:00,
2013-03-24 01:52:00,34.4,20.3,29.89,ENE,72,2.0,8.0,56,0.00,,---,0.00,VWS V14.01,2013-03-24 05:52:00,
2013-03-24 01:57:00,34.3,20.7,29.90,East,96,2.0,8.0,57,0.00,,---,0.00,VWS V14.01,2013-03-24 05:57:00,
2013-03-24 02:02:00,34.3,20.2,29.90,SE,128,5.0,5.0,56,0.00,,---,0.00,VWS V14.01,2013-03-24 06:02:00,
2013-03-24 02:07:00,34.1,20.5,29.90,ESE,117,4.0,10.0,57,0.00,,---,0.00,VWS V14.01,2013-03-24 06:07:00,
2013-03-24 02:12:00,34.1,20.1,29.90,East,89,5.0,10.0,56,0.00,,---,0.00,VWS V14.01,2013-03-24 06:12:00,
2013-03-24 02:17:00,34.1,20.1,29.89,ESE,115,2.0,11.0,56,0.00,,---,0.00,VWS V14.01,2013-03-24 06:17:00,
2013-03-24 02:22:00,34.1,20.5,29.90,ESE,103,2.0,11.0,57,0.00,,---,0.00,VWS V14.01,2013-03-24 06:22:00,
2013-03-24 02:27:00,34.2,20.1,29.90,ESE,108,1.0,11.0,56,0.00,,---,0.00,VWS V14.01,2013-03-24 06:27:00,
2013-03-24 02:32:00,34.1,20.5,29.90,SE,128,4.0,5.0,57,0.00,,---,0.00,VWS V14.01,2013-03-24 06:32:00,
2013-03-24 02:38:00,34.0,20.4,29.89,ESE,115,7.0,10.0,57,0.00,,---,0.00,VWS V14.01,2013-03-24 06:38:00,
2013-03-24 02:43:00,33.9,20.3,29.89,ESE,110,5.0,10.0,57,0.00,,---,0.00,VWS V14.01,2013-03-24 06:43:00,
2013-03-24 02:48:00,34.0,20.8,29.90,ESE,121,3.0,10.0,58,0.00,,---,0.00,VWS V14.01,2013-03-24 06:48:00,
2013-03-24 02:53:00,33.9,20.7,29.90,ESE,113,3.0,10.0,58,0.00,,---,0.00,VWS V14.01,2013-03-24 06:53:00,
2013-03-24 02:58:00,33.9,20.7,29.90,ESE,113,4.0,10.0,58,0.00,,---,0.00,VWS V14.01,2013-03-24 06:58:00,
2013-03-24 03:03:00,33.9,20.3,29.90,East,91,3.0,8.0,57,0.00,,---,0.00,VWS V14.01,2013-03-24 07:03:00,
2013-03-24 03:08:00,33.9,20.7,29.90,ESE,107,6.0,8.0,58,0.00,,---,0.00,VWS V14.01,2013-03-24 07:08:00,
2013-03-24 03:13:00,34.0,20.8,29.90,East,86,6.0,14.0,58,0.00,,---,0.00,VWS V14.01,2013-03-24 07:13:00,
2013-03-24 03:18:00,33.9,20.7,29.90,East,83,7.0,14.0,58,0.00,,---,0.00,VWS V14.01,2013-03-24 07:18:00,
2013-03-24 03:23:00,34.0,20.4,29.91,East,100,4.0,14.0,57,0.00,,---,0.00,VWS V14.01,2013-03-24 07:23:00,
2013-03-24 03:28:00,34.1,20.5,29.90,ESE,107,8.0,14.0,57,0.00,,---,0.00,VWS V14.01,2013-03-24 07:28:00,
2013-03-24 03:33:00,34.2,20.1,29.90,ESE,115,6.0,10.0,56,0.00,,---,0.00,VWS V14.01,2013-03-24 07:33:00,
2013-03-24 03:38:00,34.1,20.1,29.90,SE,143,3.0,11.0,56,0.00,,---,0.00,VWS V14.01,2013-03-24 07:38:00,
2013-03-24 03:43:00,34.1,20.1,29.90,SE,126,10.0,13.0,56,0.00,,---,0.00,VWS V14.01,2013-03-24 07:43:00,
2013-03-24 03:48:00,34.1,20.5,29.89,East,79,8.0,13.0,57,0.00,,---,0.00,VWS V14.01,2013-03-24 07:48:00,
2013-03-24 03:53:00,34.1,20.1,29.89,ESE,117,5.0,13.0,56,0.00,,---,0.00,VWS V14.01,2013-03-24 07:53:00,
2013-03-24 03:58:00,34.1,20.1,29.89,NE,51,7.0,14.0,56,0.00,,---,0.00,VWS V14.01,2013-03-24 07:58:00,
2013-03-24 04:03:00,34.0,20.4,29.88,ESE,105,7.0,13.0,57,0.00,,---,0.00,VWS V14.01,2013-03-24 08:03:00,
2013-03-24 04:08:00,34.0,20.4,29.86,SE,134,5.0,13.0,57,0.00,,---,0.00,VWS V14.01,2013-03-24 08:08:00,
2013-03-24 04:13:00,33.9,20.7,29.86,ESE,103,9.0,16.0,58,0.00,,---,0.00,VWS V14.01,2013-03-24 08:13:00,
2013-03-24 04:18:00,34.0,20.4,29.85,ENE,77,6.0,16.0,57,0.00,,---,0.00,VWS V14.01,2013-03-24 08:18:00,
2013-03-24 04:23:00,33.9,20.7,29.84,East,85,7.0,16.0,58,0.00,,---,0.00,VWS V14.01,2013-03-24 08:23:00,
2013-03-24 04:28:00,33.9,20.7,29.84,ENE,73,9.0,16.0,58,0.00,,---,0.00,VWS V14.01,2013-03-24 08:28:00,
2013-03-24 04:33:00,34.0,20.4,29.83,SE,125,8.0,14.0,57,0.00,,---,0.00,VWS V14.01,2013-03-24 08:33:00,
2013-03-24 04:39:00,34.0,20.4,29.84,East,95,10.0,14.0,57,0.00,,---,0.00,VWS V14.01,2013-03-24 08:39:00,
2013-03-24 04:44:00,33.9,20.7,29.83,East,79,6.0,14.0,58,0.00,,---,0.00,VWS V14.01,2013-03-24 08:44:00,
2013-03-24 04:49:00,33.8,20.6,29.83,East,87,8.0,14.0,58,0.00,,---,0.00,VWS V14.01,2013-03-24 08:49:00,
2013-03-24 04:54:00,33.8,20.6,29.83,East,91,12.0,16.0,58,0.00,,---,0.00,VWS V14.01,2013-03-24 08:54:00,
2013-03-24 04:59:00,33.8,20.6,29.83,SE,127,7.0,16.0,58,0.00,,---,0.00,VWS V14.01,2013-03-24 08:59:00,
2013-03-24 05:04:00,33.8,20.2,29.82,East,79,15.0,15.0,57,0.00,,---,0.00,VWS V14.01,2013-03-24 09:04:00,
2013-03-24 05:09:00,33.9,19.9,29.82,ESE,120,9.0,20.0,56,0.00,,---,0.00,VWS V14.01,2013-03-24 09:09:00,
2013-03-24 05:14:00,34.0,19.5,29.82,East,82,6.0,20.0,55,0.00,,---,0.00,VWS V14.01,2013-03-24 09:14:00,
2013-03-24 05:19:00,34.0,19.5,29.82,East,93,11.0,20.0,55,0.00,,---,0.00,VWS V14.01,2013-03-24 09:19:00,
2013-03-24 05:24:00,34.0,20.0,29.82,East,79,8.0,20.0,56,0.00,,---,0.00,VWS V14.01,2013-03-24 09:24:00,
2013-03-24 05:29:00,33.9,19.9,29.81,ESE,121,5.0,20.0,56,0.00,,---,0.00,VWS V14.01,2013-03-24 09:29:00,
2013-03-24 05:34:00,33.9,19.9,29.81,SE,127,9.0,16.0,56,0.00,,---,0.00,VWS V14.01,2013-03-24 09:34:00,
2013-03-24 05:39:00,33.8,19.4,29.81,NE,53,7.0,16.0,55,0.00,,---,0.00,VWS V14.01,2013-03-24 09:39:00,
2013-03-24 05:44:00,33.7,19.7,29.81,ENE,72,11.0,16.0,56,0.00,,---,0.00,VWS V14.01,2013-03-24 09:44:00,
2013-03-24 05:49:00,33.9,19.5,29.81,ESE,110,7.0,17.0,55,0.00,,---,0.00,VWS V14.01,2013-03-24 09:49:00,
2013-03-24 05:54:00,33.9,19.5,29.81,ESE,110,8.0,17.0,55,0.00,,---,0.00,VWS V14.01,2013-03-24 09:54:00,
2013-03-24 05:59:00,33.9,19.5,29.82,ESE,113,8.0,17.0,55,0.00,,---,0.00,VWS V14.01,2013-03-24 09:59:00,
2013-03-24 06:04:00,33.8,19.4,29.82,East,87,9.0,15.0,55,0.00,,---,0.00,VWS V14.01,2013-03-24 10:04:00,
2013-03-24 06:09:00,33.7,19.7,29.82,ENE,74,9.0,15.0,56,0.00,,---,0.00,VWS V14.01,2013-03-24 10:09:00,
2013-03-24 06:14:00,33.8,19.4,29.83,ESE,117,15.0,15.0,55,0.00,,---,0.00,VWS V14.01,2013-03-24 10:14:00,
2013-03-24 06:19:00,33.8,19.4,29.83,SE,132,9.0,15.0,55,0.00,,---,0.00,VWS V14.01,2013-03-24 10:19:00,
2013-03-24 06:24:00,33.7,19.3,29.83,East,91,6.0,15.0,55,0.00,,---,0.00,VWS V14.01,2013-03-24 10:24:00,
2013-03-24 06:29:00,33.7,19.7,29.83,ENE,57,3.0,15.0,56,0.00,,---,0.00,VWS V14.01,2013-03-24 10:29:00,
2013-03-24 06:34:00,33.7,19.3,29.83,SE,129,10.0,16.0,55,0.00,,---,0.00,VWS V14.01,2013-03-24 10:34:00,
2013-03-24 06:39:00,33.7,19.7,29.82,ESE,105,8.0,16.0,56,0.00,,---,0.00,VWS V14.01,2013-03-24 10:39:00,
2013-03-24 06:44:00,33.7,19.3,29.82,East,91,5.0,16.0,55,0.00,,---,0.00,VWS V14.01,2013-03-24 10:44:00,
2013-03-24 06:50:00,33.7,19.7,29.82,ESE,115,8.0,16.0,56,0.00,,---,0.00,VWS V14.01,2013-03-24 10:50:00,
2013-03-24 06:54:00,33.6,19.6,29.82,SSE,148,7.0,16.0,56,0.00,,---,0.00,VWS V14.01,2013-03-24 10:54:00,
2013-03-24 07:00:00,33.5,19.9,29.81,ESE,111,8.0,16.0,57,0.00,,---,0.00,VWS V14.01,2013-03-24 11:00:00,
2013-03-24 07:05:00,33.6,19.6,29.81,East,84,9.0,16.0,56,0.00,,---,0.00,VWS V14.01,2013-03-24 11:05:00,
2013-03-24 07:10:00,33.6,19.6,29.81,ESE,108,13.0,16.0,56,0.00,,---,0.00,VWS V14.01,2013-03-24 11:10:00,
2013-03-24 07:15:00,33.7,19.7,29.80,East,84,6.0,16.0,56,0.00,,---,0.00,VWS V14.01,2013-03-24 11:15:00,
2013-03-24 07:20:00,33.7,19.7,29.80,ESE,113,8.0,18.0,56,0.00,,---,0.00,VWS V14.01,2013-03-24 11:20:00,
2013-03-24 07:25:00,33.6,19.6,29.79,ESE,103,11.0,18.0,56,0.00,,---,0.00,VWS V14.01,2013-03-24 11:25:00,
2013-03-24 07:30:00,33.6,19.6,29.78,SE,138,12.0,14.0,56,0.00,,---,0.00,VWS V14.01,2013-03-24 11:30:00,
2013-03-24 07:35:00,33.5,19.5,29.79,East,89,10.0,15.0,56,0.00,,---,0.00,VWS V14.01,2013-03-24 11:35:00,
2013-03-24 07:40:00,33.5,19.9,29.78,ESE,119,11.0,15.0,57,0.00,,---,0.00,VWS V14.01,2013-03-24 11:40:00,
2013-03-24 07:45:00,33.3,19.7,29.78,SE,141,6.0,17.0,57,0.00,,---,0.00,VWS V14.01,2013-03-24 11:45:00,
2013-03-24 07:50:00,33.3,19.7,29.78,East,101,8.0,17.0,57,0.00,,---,0.00,VWS V14.01,2013-03-24 11:50:00,
2013-03-24 07:55:00,33.2,20.0,29.78,East,86,11.0,17.0,58,0.00,,---,0.00,VWS V14.01,2013-03-24 11:55:00,
2013-03-24 08:00:00,33.3,20.1,29.78,SE,129,8.0,11.0,58,0.00,,---,0.00,VWS V14.01,2013-03-24 12:00:00,
2013-03-24 08:05:00,33.2,20.4,29.78,ESE,105,8.0,16.0,59,0.00,,---,0.00,VWS V14.01,2013-03-24 12:05:00,
2013-03-24 08:10:00,33.3,20.5,29.78,ENE,65,6.0,16.0,59,0.00,,---,0.00,VWS V14.01,2013-03-24 12:10:00,
2013-03-24 08:15:00,33.3,20.1,29.78,ENE,65,11.0,19.0,58,0.00,,---,0.00,VWS V14.01,2013-03-24 12:15:00,
2013-03-24 08:20:00,33.3,20.5,29.78,ESE,108,6.0,19.0,59,0.00,,---,0.00,VWS V14.01,2013-03-24 12:20:00,
2013-03-24 08:25:00,33.4,20.6,29.78,East,94,9.0,20.0,59,0.00,,---,0.00,VWS V14.01,2013-03-24 12:25:00,
2013-03-24 08:30:00,33.4,21.0,29.78,SE,135,9.0,10.0,60,0.00,,---,0.00,VWS V14.01,2013-03-24 12:30:00,
2013-03-24 08:35:00,33.5,20.7,29.79,East,81,8.0,16.0,59,0.00,,---,0.00,VWS V14.01,2013-03-24 12:35:00,
2013-03-24 08:40:00,33.5,21.1,29.78,ENE,71,7.0,17.0,60,0.00,,---,0.00,VWS V14.01,2013-03-24 12:40:00,
2013-03-24 08:45:00,33.3,22.1,29.78,ENE,77,4.0,17.0,63,0.00,,---,0.00,VWS V14.01,2013-03-24 12:45:00,
2013-03-24 08:50:00,33.0,22.9,29.78,SE,134,11.0,19.0,66,0.00,,---,0.00,VWS V14.01,2013-03-24 12:50:00,
2013-03-24 08:55:00,32.6,23.6,29.78,SE,136,14.0,19.0,69,0.00,,---,0.00,VWS V14.01,2013-03-24 12:55:00,
2013-03-24 09:00:00,32.3,24.6,29.78,ESE,109,13.0,14.0,73,0.00,,---,0.00,VWS V14.01,2013-03-24 13:00:00,
2013-03-24 09:05:00,31.9,25.2,29.78,ENE,61,15.0,16.0,76,0.00,,---,0.00,VWS V14.01,2013-03-24 13:05:00,
2013-03-24 09:10:00,31.6,25.9,29.78,ESE,120,14.0,17.0,79,0.00,,---,0.00,VWS V14.01,2013-03-24 13:10:00,
2013-03-24 09:15:00,31.4,26.2,29.77,East,87,9.0,19.0,81,0.00,,---,0.00,VWS V14.01,2013-03-24 13:15:00,
2013-03-24 09:20:00,31.1,26.5,29.77,East,98,9.0,19.0,83,0.00,,---,0.00,VWS V14.01,2013-03-24 13:20:00,
2013-03-24 09:25:00,31.0,26.7,29.77,ENE,57,13.0,19.0,84,0.00,,---,0.00,VWS V14.01,2013-03-24 13:25:00,
2013-03-24 09:30:00,30.8,26.8,29.77,ENE,77,5.0,12.0,85,0.00,,---,0.00,VWS V14.01,2013-03-24 13:30:00,
2013-03-24 09:35:00,30.7,26.7,29.77,ESE,120,17.0,17.0,85,0.00,,---,0.00,VWS V14.01,2013-03-24 13:35:00,
2013-03-24 09:40:00,30.6,26.9,29.76,East,96,13.0,19.0,86,0.00,,---,0.00,VWS V14.01,2013-03-24 13:40:00,
2013-03-24 09:46:00,30.5,27.1,29.76,ENE,72,5.0,19.0,87,0.00,,---,0.00,VWS V14.01,2013-03-24 13:46:00,
2013-03-24 09:51:00,30.5,27.4,29.76,East,88,6.0,19.0,88,0.00,,---,0.00,VWS V14.01,2013-03-24 13:51:00,
2013-03-24 09:56:00,30.3,27.2,29.76,East,79,7.0,19.0,88,0.00,,---,0.00,VWS V14.01,2013-03-24 13:56:00,
2013-03-24 10:01:00,30.2,27.1,29.76,East,96,3.0,8.0,88,0.00,,---,0.00,VWS V14.01,2013-03-24 14:01:00,
2013-03-24 10:06:00,30.2,27.4,29.75,ESE,117,6.0,11.0,89,0.00,,---,0.00,VWS V14.01,2013-03-24 14:06:00,
2013-03-24 10:11:00,30.1,27.5,29.75,ENE,75,11.0,14.0,90,0.00,,---,0.00,VWS V14.01,2013-03-24 14:11:00,
2013-03-24 10:16:00,30.0,27.4,29.75,SE,145,7.0,14.0,90,0.00,,---,0.00,VWS V14.01,2013-03-24 14:16:00,
2013-03-24 10:21:00,30.0,27.7,29.74,East,86,6.0,14.0,91,0.00,,---,0.00,VWS V14.01,2013-03-24 14:21:00,
2013-03-24 10:26:00,30.0,27.7,29.74,East,84,6.0,14.0,91,0.00,,---,0.00,VWS V14.01,2013-03-24 14:26:00,
2013-03-24 10:31:00,30.0,28.0,29.74,SE,131,4.0,11.0,92,0.00,,---,0.00,VWS V14.01,2013-03-24 14:31:00,
2013-03-24 10:36:00,29.9,27.9,29.74,NE,45,5.0,14.0,92,0.00,,---,0.00,VWS V14.01,2013-03-24 14:36:00,
2013-03-24 10:42:00,29.9,28.1,29.73,SE,136,7.0,14.0,93,0.00,,---,0.00,VWS V14.01,2013-03-24 14:42:00,
2013-03-24 10:47:00,29.9,28.1,29.72,SE,133,7.0,17.0,93,0.00,,---,0.00,VWS V14.01,2013-03-24 14:47:00,
2013-03-24 10:52:00,29.8,28.0,29.72,ENE,70,6.0,19.0,93,0.00,,---,0.00,VWS V14.01,2013-03-24 14:52:00,
2013-03-24 10:57:00,29.8,28.3,29.71,East,97,11.0,19.0,94,0.00,,---,0.00,VWS V14.01,2013-03-24 14:57:00,
2013-03-24 11:02:00,29.8,28.3,29.71,ESE,117,12.0,16.0,94,0.00,,---,0.00,VWS V14.01,2013-03-24 15:02:00,
2013-03-24 11:07:00,29.8,28.3,29.70,East,87,7.0,17.0,94,0.00,,---,0.00,VWS V14.01,2013-03-24 15:07:00,
2013-03-24 11:12:00,29.9,28.4,29.70,NNE,26,13.0,17.0,94,0.00,,---,0.00,VWS V14.01,2013-03-24 15:12:00,
2013-03-24 11:17:00,29.9,28.4,29.69,ESE,102,10.0,17.0,94,0.00,,---,0.00,VWS V14.01,2013-03-24 15:17:00,
2013-03-24 11:22:00,29.8,28.3,29.69,ESE,120,7.0,20.0,94,0.00,,---,0.00,VWS V14.01,2013-03-24 15:22:00,
2013-03-24 11:27:00,29.9,28.6,29.69,East,93,6.0,20.0,95,0.00,,---,0.00,VWS V14.01,2013-03-24 15:27:00,
2013-03-24 11:32:00,29.9,28.6,29.69,East,93,5.0,17.0,95,0.00,,---,0.00,VWS V14.01,2013-03-24 15:32:00,
2013-03-24 11:37:00,30.0,28.7,29.69,East,101,7.0,17.0,95,0.00,,---,0.00,VWS V14.01,2013-03-24 15:37:00,
2013-03-24 11:42:00,30.0,28.7,29.69,ESE,103,10.0,17.0,95,0.00,,---,0.00,VWS V14.01,2013-03-24 15:42:00,
2013-03-24 11:47:00,30.0,28.7,29.68,ENE,75,8.0,19.0,95,0.00,,---,0.00,VWS V14.01,2013-03-24 15:47:00,
2013-03-24 11:52:00,30.0,29.0,29.68,ESE,102,8.0,19.0,96,0.00,,---,0.00,VWS V14.01,2013-03-24 15:52:00,
2013-03-24 11:57:00,30.0,29.0,29.68,East,86,8.0,19.0,96,0.00,,---,0.00,VWS V14.01,2013-03-24 15:57:00,
2013-03-24 12:02:00,29.9,28.9,29.68,SE,129,12.0,17.0,96,0.00,,---,0.00,VWS V14.01,2013-03-24 16:02:00,
2013-03-24 12:07:00,30.0,29.0,29.67,East,91,7.0,17.0,96,0.00,,---,0.00,VWS V14.01,2013-03-24 16:07:00,
2013-03-24 12:12:00,30.0,29.0,29.67,ESE,110,12.0,17.0,96,0.00,,---,0.00,VWS V14.01,2013-03-24 16:12:00,
2013-03-24 12:17:00,30.0,29.0,29.67,ESE,103,13.0,17.0,96,0.00,,---,0.00,VWS V14.01,2013-03-24 16:17:00,
2013-03-24 12:22:00,30.0,29.0,29.67,ESE,118,15.0,17.0,96,0.00,,---,0.00,VWS V14.01,2013-03-24 16:22:00,
2013-03-24 12:27:00,30.0,29.0,29.66,ESE,102,8.0,17.0,96,0.00,,---,0.00,VWS V14.01,2013-03-24 16:27:00,
2013-03-24 12:33:00,30.0,29.0,29.66,East,79,8.0,18.0,96,0.00,,---,0.00,VWS V14.01,2013-03-24 16:33:00,
2013-03-24 12:38:00,30.0,29.2,29.66,ENE,77,10.0,18.0,97,0.00,,---,0.00,VWS V14.01,2013-03-24 16:38:00,
2013-03-24 12:43:00,30.0,29.2,29.66,East,96,14.0,18.0,97,0.00,,---,0.00,VWS V14.01,2013-03-24 16:43:00,
2013-03-24 12:48:00,30.0,29.2,29.66,East,92,10.0,18.0,97,0.00,,---,0.00,VWS V14.01,2013-03-24 16:48:00,
2013-03-24 12:53:00,30.0,29.2,29.65,ESE,118,13.0,20.0,97,0.00,,---,0.00,VWS V14.01,2013-03-24 16:53:00,
2013-03-24 12:58:00,30.0,29.2,29.66,East,89,10.0,20.0,97,0.00,,---,0.00,VWS V14.01,2013-03-24 16:58:00,
2013-03-24 13:03:00,30.0,29.2,29.66,ESE,111,11.0,16.0,97,0.00,,---,0.00,VWS V14.01,2013-03-24 17:03:00,
2013-03-24 13:08:00,30.0,29.2,29.66,ENE,77,6.0,21.0,97,0.00,,---,0.00,VWS V14.01,2013-03-24 17:08:00,
2013-03-24 13:13:00,30.0,29.2,29.66,ESE,116,8.0,21.0,97,0.00,,---,0.00,VWS V14.01,2013-03-24 17:13:00,
2013-03-24 13:18:00,30.0,29.2,29.66,SE,125,9.0,21.0,97,0.00,,---,0.00,VWS V14.01,2013-03-24 17:18:00,
2013-03-24 13:23:00,30.0,29.2,29.65,ESE,105,6.0,21.0,97,0.00,,---,0.00,VWS V14.01,2013-03-24 17:23:00,
2013-03-24 13:28:00,30.1,29.4,29.65,East,79,6.0,21.0,97,0.00,,---,0.00,VWS V14.01,2013-03-24 17:28:00,
2013-03-24 13:33:00,30.2,29.5,29.64,ESE,120,8.0,19.0,97,0.00,,---,0.00,VWS V14.01,2013-03-24 17:33:00,
2013-03-24 13:38:00,30.2,29.5,29.64,NE,44,7.0,19.0,97,0.00,,---,0.00,VWS V14.01,2013-03-24 17:38:00,
2013-03-24 13:43:00,30.2,29.5,29.64,ENE,68,8.0,19.0,97,0.00,,---,0.00,VWS V14.01,2013-03-24 17:43:00,
2013-03-24 13:48:00,30.1,29.4,29.64,SE,129,14.0,25.0,97,0.00,,---,0.00,VWS V14.01,2013-03-24 17:48:00,
2013-03-24 13:53:00,30.0,29.2,29.63,SE,125,15.0,25.0,97,0.00,,---,0.00,VWS V14.01,2013-03-24 17:53:00,
2013-03-24 13:58:00,29.9,29.1,29.63,SE,129,17.0,25.0,97,0.00,,---,0.00,VWS V14.01,2013-03-24 17:58:00,
2013-03-24 14:03:00,29.8,29.0,29.63,ESE,113,13.0,20.0,97,0.00,,---,0.00,VWS V14.01,2013-03-24 18:03:00,
2013-03-24 14:08:00,29.8,29.0,29.64,ESE,121,8.0,20.0,97,0.00,,---,0.00,VWS V14.01,2013-03-24 18:08:00,
2013-03-24 14:13:00,29.8,29.0,29.62,ESE,114,14.0,20.0,97,0.00,,---,0.00,VWS V14.01,2013-03-24 18:13:00,
2013-03-24 14:18:00,29.7,29.0,29.63,ENE,65,8.0,23.0,97,0.00,,---,0.00,VWS V14.01,2013-03-24 18:18:00,
2013-03-24 14:23:00,29.7,29.0,29.63,SE,136,8.0,23.0,97,0.00,,---,0.00,VWS V14.01,2013-03-24 18:23:00,
2013-03-24 14:29:00,29.6,28.9,29.62,ESE,110,14.0,23.0,97,0.00,,---,0.00,VWS V14.01,2013-03-24 18:29:00,
2013-03-24 14:34:00,29.6,28.9,29.62,ESE,121,12.0,16.0,97,0.00,,---,0.00,VWS V14.01,2013-03-24 18:34:00,
2013-03-24 14:39:00,29.6,28.9,29.61,SSE,152,9.0,21.0,97,0.00,,---,0.00,VWS V14.01,2013-03-24 18:39:00,
2013-03-24 14:44:00,29.6,28.9,29.61,SE,131,9.0,21.0,97,0.00,,---,0.00,VWS V14.01,2013-03-24 18:44:00,
2013-03-24 14:49:00,29.6,28.9,29.61,ESE,108,15.0,21.0,97,0.00,,---,0.00,VWS V14.01,2013-03-24 18:49:00,
2013-03-24 14:54:00,29.5,28.8,29.60,SE,146,14.0,21.0,97,0.00,,---,0.00,VWS V14.01,2013-03-24 18:54:00,
2013-03-24 14:59:00,29.5,28.8,29.60,SE,141,11.0,21.0,97,0.00,,---,0.00,VWS V14.01,2013-03-24 18:59:00,
2013-03-24 15:04:00,29.6,28.9,29.59,SE,127,7.0,22.0,97,0.00,,---,0.00,VWS V14.01,2013-03-24 19:04:00,
2013-03-24 15:09:00,29.7,29.0,29.59,ESE,107,15.0,22.0,97,0.00,,---,0.00,VWS V14.01,2013-03-24 19:09:00,
2013-03-24 15:14:00,29.8,29.0,29.58,ESE,105,15.0,22.0,97,0.00,,---,0.00,VWS V14.01,2013-03-24 19:14:00,
2013-03-24 15:19:00,29.9,29.1,29.58,SE,127,5.0,22.0,97,0.00,,---,0.00,VWS V14.01,2013-03-24 19:19:00,
2013-03-24 15:24:00,29.9,29.1,29.58,SE,132,8.0,22.0,97,0.00,,---,0.00,VWS V14.01,2013-03-24 19:24:00,
2013-03-24 15:29:00,30.0,29.2,29.58,ESE,108,11.0,22.0,97,0.00,,---,0.00,VWS V14.01,2013-03-24 19:29:00,
2013-03-24 15:34:00,30.0,29.2,29.58,East,80,14.0,20.0,97,0.00,,---,0.00,VWS V14.01,2013-03-24 19:34:00,
2013-03-24 15:39:00,30.0,29.2,29.58,ENE,78,7.0,20.0,97,0.00,,---,0.00,VWS V14.01,2013-03-24 19:39:00,
2013-03-24 15:44:00,30.1,29.4,29.58,SE,131,13.0,20.0,97,0.00,,---,0.00,VWS V14.01,2013-03-24 19:44:00,
2013-03-24 15:49:00,30.0,29.2,29.57,ESE,113,11.0,20.0,97,0.00,,---,0.00,VWS V14.01,2013-03-24 19:49:00,
2013-03-24 15:54:00,30.1,29.4,29.57,East,82,11.0,20.0,97,0.00,,---,0.00,VWS V14.01,2013-03-24 19:54:00,
2013-03-24 15:59:00,29.9,29.1,29.58,ESE,108,9.0,20.0,97,0.00,,---,0.00,VWS V14.01,2013-03-24 19:59:00,
2013-03-24 16:04:00,30.0,29.2,29.57,ESE,113,9.0,15.0,97,0.00,,---,0.00,VWS V14.01,2013-03-24 20:04:00,
2013-03-24 16:09:00,29.9,29.1,29.57,SE,126,12.0,18.0,97,0.00,,---,0.00,VWS V14.01,2013-03-24 20:09:00,
2013-03-24 16:14:00,30.0,29.2,29.57,ESE,109,7.0,18.0,97,0.00,,---,0.00,VWS V14.01,2013-03-24 20:14:00,
2013-03-24 16:19:00,30.0,29.2,29.57,East,98,6.0,18.0,97,0.00,,---,0.00,VWS V14.01,2013-03-24 20:19:00,
2013-03-24 16:24:00,30.0,29.2,29.57,ENE,68,11.0,18.0,97,0.00,,---,0.00,VWS V14.01,2013-03-24 20:24:00,
2013-03-24 16:29:00,30.0,29.2,29.57,East,85,8.0,18.0,97,0.00,,---,0.00,VWS V14.01,2013-03-24 20:29:00,
2013-03-24 16:34:00,30.0,29.2,29.57,ESE,110,13.0,17.0,97,0.00,,---,0.00,VWS V14.01,2013-03-24 20:34:00,
2013-03-24 16:39:00,30.0,29.2,29.57,SE,127,7.0,17.0,97,0.00,,---,0.00,VWS V14.01,2013-03-24 20:39:00,
2013-03-24 16:44:00,30.2,29.5,29.56,East,82,8.0,17.0,97,0.00,,---,0.00,VWS V14.01,2013-03-24 20:44:00,
2013-03-24 16:49:00,30.3,29.5,29.56,SE,128,6.0,18.0,97,0.00,,---,0.00,VWS V14.01,2013-03-24 20:49:00,
2013-03-24 16:54:00,30.2,29.5,29.56,East,91,5.0,18.0,97,0.00,,---,0.00,VWS V14.01,2013-03-24 20:54:00,
2013-03-24 16:59:00,30.3,29.5,29.55,ESE,107,7.0,18.0,97,0.00,,---,0.00,VWS V14.01,2013-03-24 20:59:00,
2013-03-24 17:04:00,30.4,29.6,29.55,NE,50,6.0,12.0,97,0.00,,---,0.00,VWS V14.01,2013-03-24 21:04:00,
2013-03-24 17:09:00,30.3,29.5,29.55,ESE,110,10.0,12.0,97,0.00,,---,0.00,VWS V14.01,2013-03-24 21:09:00,
2013-03-24 17:14:00,30.2,29.5,29.55,ENE,65,7.0,12.0,97,0.00,,---,0.00,VWS V14.01,2013-03-24 21:14:00,
2013-03-24 17:19:00,30.3,29.5,29.54,ESE,113,10.0,15.0,97,0.00,,---,0.00,VWS V14.01,2013-03-24 21:19:00,
2013-03-24 17:24:00,30.2,29.5,29.54,NE,36,5.0,15.0,97,0.00,,---,0.00,VWS V14.01,2013-03-24 21:24:00,
2013-03-24 17:29:00,30.1,29.4,29.54,SW,214,8.0,15.0,97,0.00,,---,0.00,VWS V14.01,2013-03-24 21:29:00,
2013-03-24 17:34:00,30.0,29.2,29.54,SE,131,7.0,12.0,97,0.00,,---,0.00,VWS V14.01,2013-03-24 21:34:00,
2013-03-24 17:40:00,29.9,29.1,29.54,SE,129,5.0,12.0,97,0.00,,---,0.00,VWS V14.01,2013-03-24 21:40:00,
2013-03-24 17:45:00,29.8,29.0,29.54,ESE,107,5.0,12.0,97,0.00,,---,0.00,VWS V14.01,2013-03-24 21:45:00,
2013-03-24 17:50:00,29.8,29.3,29.53,East,84,7.0,12.0,98,0.00,,---,0.00,VWS V14.01,2013-03-24 21:50:00,
2013-03-24 17:55:00,29.7,29.2,29.53,ESE,116,9.0,12.0,98,0.00,,---,0.00,VWS V14.01,2013-03-24 21:55:00,
2013-03-24 18:00:00,29.7,29.2,29.53,East,83,6.0,7.0,98,0.00,,---,0.00,VWS V14.01,2013-03-24 22:00:00,
2013-03-24 18:05:00,29.8,29.3,29.52,East,79,7.0,14.0,98,0.00,,---,0.00,VWS V14.01,2013-03-24 22:05:00,
2013-03-24 18:10:00,29.7,29.2,29.52,ESE,110,6.0,14.0,98,0.00,,---,0.00,VWS V14.01,2013-03-24 22:10:00,
2013-03-24 18:15:00,29.7,29.2,29.51,East,82,5.0,14.0,98,0.00,,---,0.00,VWS V14.01,2013-03-24 22:15:00,
2013-03-24 18:20:00,29.7,29.2,29.51,ESE,116,6.0,14.0,98,0.00,,---,0.00,VWS V14.01,2013-03-24 22:20:00,
2013-03-24 18:25:00,29.7,29.2,29.51,ESE,102,7.0,14.0,98,0.00,,---,0.00,VWS V14.01,2013-03-24 22:25:00,
2013-03-24 18:30:00,29.7,29.2,29.50,ENE,78,7.0,7.0,98,0.00,,---,0.00,VWS V14.01,2013-03-24 22:30:00,
2013-03-24 18:35:00,29.7,29.2,29.50,ESE,110,6.0,10.0,98,0.00,,---,0.00,VWS V14.01,2013-03-24 22:35:00,
2013-03-24 18:40:00,29.7,29.2,29.50,ESE,103,7.0,11.0,98,0.00,,---,0.00,VWS V14.01,2013-03-24 22:40:00,
2013-03-24 18:45:00,29.7,29.2,29.50,SE,129,6.0,11.0,98,0.00,,---,0.00,VWS V14.01,2013-03-24 22:45:00,
2013-03-24 18:50:00,29.7,29.2,29.50,ESE,113,7.0,11.0,98,0.00,,---,0.00,VWS V14.01,2013-03-24 22:50:00,
2013-03-24 18:55:00,29.7,29.2,29.51,ENE,72,6.0,11.0,98,0.00,,---,0.00,VWS V14.01,2013-03-24 22:55:00,
2013-03-24 19:00:00,29.7,29.2,29.51,NNE,25,5.0,9.0,98,0.00,,---,0.00,VWS V14.01,2013-03-24 23:00:00,
2013-03-24 19:05:00,29.7,29.2,29.52,ESE,119,11.0,12.0,98,0.00,,---,0.00,VWS V14.01,2013-03-24 23:05:00,
2013-03-24 19:10:00,29.7,29.2,29.52,ESE,120,10.0,12.0,98,0.00,,---,0.00,VWS V14.01,2013-03-24 23:10:00,
2013-03-24 19:15:00,29.8,29.3,29.52,ENE,72,8.0,12.0,98,0.00,,---,0.00,VWS V14.01,2013-03-24 23:15:00,
2013-03-24 19:20:00,29.8,29.3,29.52,East,98,6.0,14.0,98,0.00,,---,0.00,VWS V14.01,2013-03-24 23:20:00,
2013-03-24 19:25:00,29.9,29.4,29.52,ESE,103,10.0,14.0,98,0.00,,---,0.00,VWS V14.01,2013-03-24 23:25:00,
2013-03-24 19:30:00,29.9,29.4,29.52,SE,126,9.0,12.0,98,0.00,,---,0.00,VWS V14.01,2013-03-24 23:30:00,
2013-03-24 19:35:00,29.8,29.3,29.52,ENE,75,5.0,15.0,98,0.00,,---,0.00,VWS V14.01,2013-03-24 23:35:00,
2013-03-24 19:40:00,29.8,29.3,29.51,East,82,8.0,13.0,98,0.00,,---,0.00,VWS V14.01,2013-03-24 23:40:00,
2013-03-24 19:45:00,29.7,29.2,29.51,SE,136,9.0,13.0,98,0.00,,---,0.00,VWS V14.01,2013-03-24 23:45:00,
2013-03-24 19:50:00,29.7,29.2,29.52,ESE,107,11.0,13.0,98,0.00,,---,0.00,VWS V14.01,2013-03-24 23:50:00,
2013-03-24 19:55:00,29.7,29.2,29.52,ESE,116,8.0,14.0,98,0.00,,---,0.00,VWS V14.01,2013-03-24 23:55:00,
2013-03-24 20:00:00,29.7,29.2,29.52,ENE,73,7.0,12.0,98,0.00,,---,0.00,VWS V14.01,2013-03-25 00:00:00,
2013-03-24 20:12:00,29.9,29.4,29.52,ESE,120,7.0,7.0,98,0.00,,---,0.00,VWS V14.01,2013-03-25 00:12:00,
2013-03-24 20:17:00,30.0,29.5,29.52,East,81,7.0,14.0,98,0.00,,---,0.00,VWS V14.01,2013-03-25 00:17:00,
2013-03-24 20:22:00,30.0,29.5,29.52,SE,134,8.0,15.0,98,0.00,,---,0.00,VWS V14.01,2013-03-25 00:22:00,
2013-03-24 20:27:00,30.1,29.6,29.52,SE,130,10.0,15.0,98,0.00,,---,0.00,VWS V14.01,2013-03-25 00:27:00,
2013-03-24 20:32:00,30.2,29.7,29.52,ESE,122,9.0,13.0,98,0.00,,---,0.00,VWS V14.01,2013-03-25 00:32:00,
2013-03-24 20:37:00,30.3,29.8,29.52,East,94,11.0,15.0,98,0.00,,---,0.00,VWS V14.01,2013-03-25 00:37:00,
2013-03-24 20:42:00,30.4,29.9,29.51,SE,129,9.0,15.0,98,0.00,,---,0.00,VWS V14.01,2013-03-25 00:42:00,
2013-03-24 20:48:00,30.3,29.8,29.50,SE,132,7.0,15.0,98,0.00,,---,0.00,VWS V14.01,2013-03-25 00:48:00,
2013-03-24 20:53:00,30.2,29.7,29.50,East,80,16.0,16.0,98,0.00,,---,0.00,VWS V14.01,2013-03-25 00:53:00,
2013-03-24 20:58:00,30.2,29.7,29.50,SE,128,6.0,16.0,98,0.00,,---,0.00,VWS V14.01,2013-03-25 00:58:00,
2013-03-24 21:03:00,30.1,29.6,29.50,SE,131,7.0,16.0,98,0.00,,---,0.00,VWS V14.01,2013-03-25 01:03:00,
2013-03-24 21:08:00,30.1,29.6,29.50,East,91,7.0,16.0,98,0.00,,---,0.00,VWS V14.01,2013-03-25 01:08:00,
2013-03-24 21:13:00,30.0,29.5,29.50,ESE,107,10.0,16.0,98,0.00,,---,0.00,VWS V14.01,2013-03-25 01:13:00,
2013-03-24 21:18:00,30.0,29.5,29.51,East,86,7.0,19.0,98,0.00,,---,0.00,VWS V14.01,2013-03-25 01:18:00,
2013-03-24 21:23:00,29.9,29.4,29.49,ENE,72,13.0,19.0,98,0.00,,---,0.00,VWS V14.01,2013-03-25 01:23:00,
2013-03-24 21:28:00,29.9,29.4,29.49,SE,131,8.0,19.0,98,0.00,,---,0.00,VWS V14.01,2013-03-25 01:28:00,
2013-03-24 21:33:00,29.9,29.4,29.48,ESE,113,10.0,14.0,98,0.00,,---,0.00,VWS V14.01,2013-03-25 01:33:00,
2013-03-24 21:38:00,29.8,29.3,29.48,ESE,110,10.0,18.0,98,0.00,,---,0.00,VWS V14.01,2013-03-25 01:38:00,
2013-03-24 21:43:00,29.8,29.3,29.48,ESE,103,12.0,18.0,98,0.00,,---,0.00,VWS V14.01,2013-03-25 01:43:00,
2013-03-24 21:48:00,29.7,29.2,29.48,ESE,115,19.0,28.0,98,0.00,,---,0.00,VWS V14.01,2013-03-25 01:48:00,
2013-03-24 21:53:00,29.7,29.2,29.47,East,86,20.0,28.0,98,0.00,,---,0.00,VWS V14.01,2013-03-25 01:53:00,
2013-03-24 21:58:00,29.6,29.1,29.47,ENE,63,15.0,28.0,98,0.00,,---,0.00,VWS V14.01,2013-03-25 01:58:00,
2013-03-24 22:03:00,29.6,29.1,29.49,ENE,72,9.0,22.0,98,0.00,,---,0.00,VWS V14.01,2013-03-25 02:03:00,
2013-03-24 22:08:00,29.7,29.2,29.50,ESE,113,9.0,28.0,98,0.00,,---,0.00,VWS V14.01,2013-03-25 02:08:00,
2013-03-24 22:13:00,29.7,29.2,29.51,SE,131,5.0,28.0,98,0.00,,---,0.00,VWS V14.01,2013-03-25 02:13:00,
2013-03-24 22:18:00,29.7,29.2,29.52,East,95,10.0,28.0,98,0.00,,---,0.00,VWS V14.01,2013-03-25 02:18:00,
2013-03-24 22:23:00,29.6,29.1,29.53,SE,126,6.0,28.0,98,0.00,,---,0.00,VWS V14.01,2013-03-25 02:23:00,
2013-03-24 22:28:00,29.7,29.2,29.53,ESE,115,11.0,28.0,98,0.00,,---,0.00,VWS V14.01,2013-03-25 02:28:00,
2013-03-24 22:33:00,29.6,29.1,29.52,ESE,122,9.0,15.0,98,0.00,,---,0.00,VWS V14.01,2013-03-25 02:33:00,
2013-03-24 22:38:00,29.6,29.1,29.52,East,98,7.0,15.0,98,0.00,,---,0.00,VWS V14.01,2013-03-25 02:38:00,
2013-03-24 22:43:00,29.5,29.0,29.53,SE,129,5.0,15.0,98,0.00,,---,0.00,VWS V14.01,2013-03-25 02:43:00,
2013-03-24 22:48:00,29.5,29.0,29.53,ESE,118,12.0,15.0,98,0.00,,---,0.00,VWS V14.01,2013-03-25 02:48:00,
2013-03-24 22:53:00,29.5,29.0,29.55,ESE,116,6.0,17.0,98,0.00,,---,0.00,VWS V14.01,2013-03-25 02:53:00,
2013-03-24 22:58:00,29.4,28.9,29.55,SE,132,8.0,17.0,98,0.00,,---,0.00,VWS V14.01,2013-03-25 02:58:00,
2013-03-24 23:03:00,29.4,28.9,29.55,ESE,107,4.0,12.0,98,0.00,,---,0.00,VWS V14.01,2013-03-25 03:03:00,
2013-03-24 23:08:00,29.4,28.9,29.55,SE,127,8.0,12.0,98,0.00,,---,0.00,VWS V14.01,2013-03-25 03:08:00,
2013-03-24 23:13:00,29.4,28.9,29.55,ESE,117,6.0,12.0,98,0.00,,---,0.00,VWS V14.01,2013-03-25 03:13:00,
2013-03-24 23:19:00,29.3,28.8,29.54,East,85,6.0,14.0,98,0.00,,---,0.00,VWS V14.01,2013-03-25 03:19:00,
2013-03-24 23:24:00,29.3,28.8,29.55,ESE,120,9.0,14.0,98,0.00,,---,0.00,VWS V14.01,2013-03-25 03:24:00,
2013-03-24 23:29:00,29.2,28.7,29.54,ENE,73,7.0,14.0,98,0.00,,---,0.00,VWS V14.01,2013-03-25 03:29:00,
2013-03-24 23:34:00,29.2,28.7,29.54,SE,137,5.0,14.0,98,0.00,,---,0.00,VWS V14.01,2013-03-25 03:34:00,
2013-03-24 23:39:00,29.2,28.7,29.55,SE,134,5.0,14.0,98,0.00,,---,0.00,VWS V14.01,2013-03-25 03:39:00,
2013-03-24 23:44:00,29.2,28.7,29.56,ESE,120,10.0,14.0,98,0.00,,---,0.00,VWS V14.01,2013-03-25 03:44:00,
2013-03-24 23:49:00,29.2,28.7,29.56,ESE,116,4.0,14.0,98,0.00,,---,0.00,VWS V14.01,2013-03-25 03:49:00,
2013-03-24 23:54:00,29.2,28.7,29.56,ESE,113,6.0,14.0,98,0.00,,---,0.00,VWS V14.01,2013-03-25 03:54:00,
2013-03-24 23:59:00,29.3,28.8,29.56,ESE,118,8.0,14.0,98,0.00,,---,0.00,VWS V14.01,2013-03-25 03:59:00,